sensor_id;sensor_type;location;lat;lon;timestamp;temperature;humidity
51579;DHT22;47998;53.242;6.386;2023-02-21T00:01:50;9.70;99.90
51579;DHT22;47998;53.242;6.386;2023-02-21T00:04:35;9.70;99.90
51579;DHT22;47998;53.242;6.386;2023-02-21T00:07:19;9.70;99.90
51579;DHT22;47998;53.242;6.386;2023-02-21T00:10:04;9.70;99.90
51579;DHT22;47998;53.242;6.386;2023-02-21T00:12:50;9.60;99.90
51579;DHT22;47998;53.242;6.386;2023-02-21T00:15:35;9.60;99.90
51579;DHT22;47998;53.242;6.386;2023-02-21T00:18:19;9.70;99.90
51579;DHT22;47998;53.242;6.386;2023-02-21T00:21:03;9.60;99.90
51579;DHT22;47998;53.242;6.386;2023-02-21T00:23:47;9.60;99.90
51579;DHT22;47998;53.242;6.386;2023-02-21T00:26:31;9.60;99.90
51579;DHT22;47998;53.242;6.386;2023-02-21T00:29:16;9.50;99.90
51579;DHT22;47998;53.242;6.386;2023-02-21T00:32:00;9.50;99.90
51579;DHT22;47998;53.242;6.386;2023-02-21T00:34:44;9.50;99.90
51579;DHT22;47998;53.242;6.386;2023-02-21T00:37:29;9.50;99.90
51579;DHT22;47998;53.242;6.386;2023-02-21T00:40:15;9.50;99.90
51579;DHT22;47998;53.242;6.386;2023-02-21T00:42:59;9.50;99.90
51579;DHT22;47998;53.242;6.386;2023-02-21T00:45:44;9.50;99.90
51579;DHT22;47998;53.242;6.386;2023-02-21T00:48:29;9.40;99.90
51579;DHT22;47998;53.242;6.386;2023-02-21T00:51:14;9.50;99.90
51579;DHT22;47998;53.242;6.386;2023-02-21T00:53:58;9.50;99.90
51579;DHT22;47998;53.242;6.386;2023-02-21T00:56:42;9.50;99.90
51579;DHT22;47998;53.242;6.386;2023-02-21T00:59:27;9.50;99.90
51579;DHT22;47998;53.242;6.386;2023-02-21T01:02:11;9.50;99.90
51579;DHT22;47998;53.242;6.386;2023-02-21T01:04:55;9.50;99.90
51579;DHT22;47998;53.242;6.386;2023-02-21T01:07:40;9.50;99.90
51579;DHT22;47998;53.242;6.386;2023-02-21T01:10:24;9.50;99.90
51579;DHT22;47998;53.242;6.386;2023-02-21T01:13:09;9.50;99.90
51579;DHT22;47998;53.242;6.386;2023-02-21T01:15:53;9.50;99.90
51579;DHT22;47998;53.242;6.386;2023-02-21T01:18:38;9.50;99.90
51579;DHT22;47998;53.242;6.386;2023-02-21T01:21:22;9.50;99.90
51579;DHT22;47998;53.242;6.386;2023-02-21T01:24:09;9.40;99.90
51579;DHT22;47998;53.242;6.386;2023-02-21T01:26:54;9.40;99.90
51579;DHT22;47998;53.242;6.386;2023-02-21T01:29:39;9.50;99.90
51579;DHT22;47998;53.242;6.386;2023-02-21T01:32:23;9.40;99.90
51579;DHT22;47998;53.242;6.386;2023-02-21T01:35:07;9.40;99.90
51579;DHT22;47998;53.242;6.386;2023-02-21T01:37:51;9.40;99.90
51579;DHT22;47998;53.242;6.386;2023-02-21T01:40:39;9.40;99.90
51579;DHT22;47998;53.242;6.386;2023-02-21T01:43:25;9.50;99.90
51579;DHT22;47998;53.242;6.386;2023-02-21T01:46:19;9.50;99.90
51579;DHT22;47998;53.242;6.386;2023-02-21T01:49:15;9.50;99.90
51579;DHT22;47998;53.242;6.386;2023-02-21T01:52:02;9.40;99.90
51579;DHT22;47998;53.242;6.386;2023-02-21T01:54:52;9.40;99.90
51579;DHT22;47998;53.242;6.386;2023-02-21T01:57:38;9.50;99.90
51579;DHT22;47998;53.242;6.386;2023-02-21T02:00:24;9.50;99.90
51579;DHT22;47998;53.242;6.386;2023-02-21T02:03:10;9.40;99.90
51579;DHT22;47998;53.242;6.386;2023-02-21T02:06:04;9.40;99.90
51579;DHT22;47998;53.242;6.386;2023-02-21T02:08:49;9.50;99.90
51579;DHT22;47998;53.242;6.386;2023-02-21T02:26:42;9.50;99.90
51579;DHT22;47998;53.242;6.386;2023-02-21T02:29:33;9.50;99.90
51579;DHT22;47998;53.242;6.386;2023-02-21T02:32:30;9.50;99.90
51579;DHT22;47998;53.242;6.386;2023-02-21T02:40:22;9.50;99.90
51579;DHT22;47998;53.242;6.386;2023-02-21T02:43:29;9.40;99.90
51579;DHT22;47998;53.242;6.386;2023-02-21T02:46:22;9.40;99.90
51579;DHT22;47998;53.242;6.386;2023-02-21T02:48:57;9.40;99.90
51579;DHT22;47998;53.242;6.386;2023-02-21T02:51:25;9.40;99.90
51579;DHT22;47998;53.242;6.386;2023-02-21T02:53:51;9.40;99.90
51579;DHT22;47998;53.242;6.386;2023-02-21T02:56:17;9.40;99.90
51579;DHT22;47998;53.242;6.386;2023-02-21T02:58:52;9.40;99.90
51579;DHT22;47998;53.242;6.386;2023-02-21T03:04:47;9.30;99.90
51579;DHT22;47998;53.242;6.386;2023-02-21T03:13:11;9.20;99.90
51579;DHT22;47998;53.242;6.386;2023-02-21T03:15:47;9.20;99.90
51579;DHT22;47998;53.242;6.386;2023-02-21T03:18:33;9.20;99.90
51579;DHT22;47998;53.242;6.386;2023-02-21T03:21:04;9.20;99.90
51579;DHT22;47998;53.242;6.386;2023-02-21T03:23:31;9.20;99.90
51579;DHT22;47998;53.242;6.386;2023-02-21T03:26:02;9.20;99.90
51579;DHT22;47998;53.242;6.386;2023-02-21T03:28:30;9.30;99.90
51579;DHT22;47998;53.242;6.386;2023-02-21T03:30:58;9.30;99.90
51579;DHT22;47998;53.242;6.386;2023-02-21T03:33:24;9.30;99.90
51579;DHT22;47998;53.242;6.386;2023-02-21T03:35:51;9.30;99.90
51579;DHT22;47998;53.242;6.386;2023-02-21T03:38:17;9.30;99.90
51579;DHT22;47998;53.242;6.386;2023-02-21T03:40:43;9.30;99.90
51579;DHT22;47998;53.242;6.386;2023-02-21T03:43:09;9.30;99.90
51579;DHT22;47998;53.242;6.386;2023-02-21T03:45:35;9.30;99.90
51579;DHT22;47998;53.242;6.386;2023-02-21T03:48:02;9.30;99.90
51579;DHT22;47998;53.242;6.386;2023-02-21T03:50:28;9.30;99.90
51579;DHT22;47998;53.242;6.386;2023-02-21T03:52:53;9.30;99.90
51579;DHT22;47998;53.242;6.386;2023-02-21T03:55:19;9.30;99.90
51579;DHT22;47998;53.242;6.386;2023-02-21T03:57:45;9.30;99.90
51579;DHT22;47998;53.242;6.386;2023-02-21T04:00:12;9.30;99.90
51579;DHT22;47998;53.242;6.386;2023-02-21T04:02:38;9.30;99.90
51579;DHT22;47998;53.242;6.386;2023-02-21T04:05:04;9.30;99.90
51579;DHT22;47998;53.242;6.386;2023-02-21T04:07:30;9.40;99.90
51579;DHT22;47998;53.242;6.386;2023-02-21T04:09:56;9.40;99.90
51579;DHT22;47998;53.242;6.386;2023-02-21T04:12:23;9.30;99.90
51579;DHT22;47998;53.242;6.386;2023-02-21T04:14:49;9.30;99.90
51579;DHT22;47998;53.242;6.386;2023-02-21T04:17:16;9.40;99.90
51579;DHT22;47998;53.242;6.386;2023-02-21T04:19:42;9.30;99.90
51579;DHT22;47998;53.242;6.386;2023-02-21T04:22:08;9.30;99.90
51579;DHT22;47998;53.242;6.386;2023-02-21T04:24:34;9.30;99.90
51579;DHT22;47998;53.242;6.386;2023-02-21T04:27:00;9.30;99.90
51579;DHT22;47998;53.242;6.386;2023-02-21T04:29:26;9.30;99.90
51579;DHT22;47998;53.242;6.386;2023-02-21T04:31:52;9.20;99.90
51579;DHT22;47998;53.242;6.386;2023-02-21T04:34:18;9.20;99.90
51579;DHT22;47998;53.242;6.386;2023-02-21T04:36:43;9.20;99.90
51579;DHT22;47998;53.242;6.386;2023-02-21T04:39:09;9.20;99.90
51579;DHT22;47998;53.242;6.386;2023-02-21T04:41:35;9.20;99.90
51579;DHT22;47998;53.242;6.386;2023-02-21T04:44:01;9.30;99.90
51579;DHT22;47998;53.242;6.386;2023-02-21T04:46:26;9.20;99.90
51579;DHT22;47998;53.242;6.386;2023-02-21T04:48:52;9.20;99.90
51579;DHT22;47998;53.242;6.386;2023-02-21T04:51:21;9.20;99.90
51579;DHT22;47998;53.242;6.386;2023-02-21T04:53:48;9.20;99.90
51579;DHT22;47998;53.242;6.386;2023-02-21T04:56:17;9.20;99.90
51579;DHT22;47998;53.242;6.386;2023-02-21T04:58:42;9.20;99.90
51579;DHT22;47998;53.242;6.386;2023-02-21T05:01:09;9.10;99.90
51579;DHT22;47998;53.242;6.386;2023-02-21T05:03:35;9.20;99.90
51579;DHT22;47998;53.242;6.386;2023-02-21T05:06:01;9.20;99.90
51579;DHT22;47998;53.242;6.386;2023-02-21T05:08:27;9.10;99.90
51579;DHT22;47998;53.242;6.386;2023-02-21T05:10:52;9.10;99.90
51579;DHT22;47998;53.242;6.386;2023-02-21T05:13:20;9.10;99.90
51579;DHT22;47998;53.242;6.386;2023-02-21T05:15:45;9.00;99.90
51579;DHT22;47998;53.242;6.386;2023-02-21T05:18:11;9.00;99.90
51579;DHT22;47998;53.242;6.386;2023-02-21T05:20:37;9.00;99.90
51579;DHT22;47998;53.242;6.386;2023-02-21T05:23:03;8.90;99.90
51579;DHT22;47998;53.242;6.386;2023-02-21T05:25:28;9.00;99.90
51579;DHT22;47998;53.242;6.386;2023-02-21T05:27:54;9.00;99.90
51579;DHT22;47998;53.242;6.386;2023-02-21T05:30:21;9.00;99.90
51579;DHT22;47998;53.242;6.386;2023-02-21T05:32:48;9.00;99.90
51579;DHT22;47998;53.242;6.386;2023-02-21T05:35:15;8.90;99.90
51579;DHT22;47998;53.242;6.386;2023-02-21T05:37:41;9.00;99.90
51579;DHT22;47998;53.242;6.386;2023-02-21T05:40:09;8.90;99.90
51579;DHT22;47998;53.242;6.386;2023-02-21T05:42:36;8.90;99.90
51579;DHT22;47998;53.242;6.386;2023-02-21T05:45:02;8.90;99.90
51579;DHT22;47998;53.242;6.386;2023-02-21T05:47:33;8.90;99.90
51579;DHT22;47998;53.242;6.386;2023-02-21T05:49:59;8.90;99.90
51579;DHT22;47998;53.242;6.386;2023-02-21T05:52:25;8.90;99.90
51579;DHT22;47998;53.242;6.386;2023-02-21T05:54:51;8.90;99.90
51579;DHT22;47998;53.242;6.386;2023-02-21T05:57:18;8.90;99.90
51579;DHT22;47998;53.242;6.386;2023-02-21T05:59:44;8.90;99.90
51579;DHT22;47998;53.242;6.386;2023-02-21T06:02:15;8.90;99.90
51579;DHT22;47998;53.242;6.386;2023-02-21T06:04:41;8.90;99.90
51579;DHT22;47998;53.242;6.386;2023-02-21T06:07:07;9.00;99.90
51579;DHT22;47998;53.242;6.386;2023-02-21T06:09:33;9.00;99.90
51579;DHT22;47998;53.242;6.386;2023-02-21T06:11:59;9.00;99.90
51579;DHT22;47998;53.242;6.386;2023-02-21T06:14:25;8.90;99.90
51579;DHT22;47998;53.242;6.386;2023-02-21T06:16:51;8.90;99.90
51579;DHT22;47998;53.242;6.386;2023-02-21T06:19:17;8.90;99.90
51579;DHT22;47998;53.242;6.386;2023-02-21T06:21:44;8.80;99.90
51579;DHT22;47998;53.242;6.386;2023-02-21T06:24:10;8.80;99.90
51579;DHT22;47998;53.242;6.386;2023-02-21T06:26:36;8.80;99.90
51579;DHT22;47998;53.242;6.386;2023-02-21T06:29:05;8.80;99.90
51579;DHT22;47998;53.242;6.386;2023-02-21T06:31:31;8.80;99.90
51579;DHT22;47998;53.242;6.386;2023-02-21T06:33:58;8.80;99.90
51579;DHT22;47998;53.242;6.386;2023-02-21T06:36:25;8.80;99.90
51579;DHT22;47998;53.242;6.386;2023-02-21T06:38:53;8.80;99.90
51579;DHT22;47998;53.242;6.386;2023-02-21T06:41:25;8.80;99.90
51579;DHT22;47998;53.242;6.386;2023-02-21T06:43:52;8.80;99.90
51579;DHT22;47998;53.242;6.386;2023-02-21T06:46:21;8.80;99.90
51579;DHT22;47998;53.242;6.386;2023-02-21T06:48:48;8.80;99.90
51579;DHT22;47998;53.242;6.386;2023-02-21T06:51:14;8.80;99.90
51579;DHT22;47998;53.242;6.386;2023-02-21T06:53:40;8.80;99.90
51579;DHT22;47998;53.242;6.386;2023-02-21T06:56:06;8.70;99.90
51579;DHT22;47998;53.242;6.386;2023-02-21T06:58:32;8.70;99.90
51579;DHT22;47998;53.242;6.386;2023-02-21T07:00:58;8.70;99.90
51579;DHT22;47998;53.242;6.386;2023-02-21T07:03:24;8.70;99.90
51579;DHT22;47998;53.242;6.386;2023-02-21T07:05:50;8.70;99.90
51579;DHT22;47998;53.242;6.386;2023-02-21T07:08:16;8.70;99.90
51579;DHT22;47998;53.242;6.386;2023-02-21T07:10:41;8.80;99.90
51579;DHT22;47998;53.242;6.386;2023-02-21T07:13:07;8.80;99.90
51579;DHT22;47998;53.242;6.386;2023-02-21T07:15:33;8.80;99.90
51579;DHT22;47998;53.242;6.386;2023-02-21T07:17:58;8.80;99.90
51579;DHT22;47998;53.242;6.386;2023-02-21T07:20:25;8.80;99.90
51579;DHT22;47998;53.242;6.386;2023-02-21T07:22:52;8.80;99.90
51579;DHT22;47998;53.242;6.386;2023-02-21T07:25:20;8.90;99.90
51579;DHT22;47998;53.242;6.386;2023-02-21T07:27:47;8.90;99.90
51579;DHT22;47998;53.242;6.386;2023-02-21T07:30:13;8.80;99.90
51579;DHT22;47998;53.242;6.386;2023-02-21T07:32:39;8.90;99.90
51579;DHT22;47998;53.242;6.386;2023-02-21T07:35:05;8.90;99.90
51579;DHT22;47998;53.242;6.386;2023-02-21T07:37:31;8.90;99.90
51579;DHT22;47998;53.242;6.386;2023-02-21T07:39:57;8.90;99.90
51579;DHT22;47998;53.242;6.386;2023-02-21T07:42:23;8.90;99.90
51579;DHT22;47998;53.242;6.386;2023-02-21T07:44:57;8.90;99.90
51579;DHT22;47998;53.242;6.386;2023-02-21T07:47:24;8.90;99.90
51579;DHT22;47998;53.242;6.386;2023-02-21T07:49:50;8.90;99.90
51579;DHT22;47998;53.242;6.386;2023-02-21T07:52:19;8.90;99.90
51579;DHT22;47998;53.242;6.386;2023-02-21T07:54:45;8.90;99.90
51579;DHT22;47998;53.242;6.386;2023-02-21T07:57:11;8.90;99.90
51579;DHT22;47998;53.242;6.386;2023-02-21T07:59:37;8.90;99.90
51579;DHT22;47998;53.242;6.386;2023-02-21T08:02:03;8.90;99.90
51579;DHT22;47998;53.242;6.386;2023-02-21T08:04:29;9.00;99.90
51579;DHT22;47998;53.242;6.386;2023-02-21T08:07:02;8.90;99.90
51579;DHT22;47998;53.242;6.386;2023-02-21T08:09:28;9.00;99.90
51579;DHT22;47998;53.242;6.386;2023-02-21T08:11:54;9.00;99.90
51579;DHT22;47998;53.242;6.386;2023-02-21T08:14:19;9.00;99.90
51579;DHT22;47998;53.242;6.386;2023-02-21T08:16:45;9.00;99.90
51579;DHT22;47998;53.242;6.386;2023-02-21T08:19:11;9.00;99.90
51579;DHT22;47998;53.242;6.386;2023-02-21T08:21:36;9.00;99.90
51579;DHT22;47998;53.242;6.386;2023-02-21T08:24:02;9.00;99.90
51579;DHT22;47998;53.242;6.386;2023-02-21T08:26:28;9.10;99.90
51579;DHT22;47998;53.242;6.386;2023-02-21T08:28:54;9.10;99.90
51579;DHT22;47998;53.242;6.386;2023-02-21T08:31:20;9.10;99.90
51579;DHT22;47998;53.242;6.386;2023-02-21T08:33:46;9.10;99.90
51579;DHT22;47998;53.242;6.386;2023-02-21T08:36:11;9.10;99.90
51579;DHT22;47998;53.242;6.386;2023-02-21T08:38:37;9.10;99.90
51579;DHT22;47998;53.242;6.386;2023-02-21T08:41:04;9.10;99.90
51579;DHT22;47998;53.242;6.386;2023-02-21T08:43:31;9.10;99.90
51579;DHT22;47998;53.242;6.386;2023-02-21T08:45:57;9.20;99.90
51579;DHT22;47998;53.242;6.386;2023-02-21T08:48:23;9.10;99.90
51579;DHT22;47998;53.242;6.386;2023-02-21T08:50:49;9.10;99.90
51579;DHT22;47998;53.242;6.386;2023-02-21T08:53:16;9.20;99.90
51579;DHT22;47998;53.242;6.386;2023-02-21T08:55:42;9.30;99.90
51579;DHT22;47998;53.242;6.386;2023-02-21T08:58:09;9.30;99.90
51579;DHT22;47998;53.242;6.386;2023-02-21T09:00:35;9.40;99.90
51579;DHT22;47998;53.242;6.386;2023-02-21T09:03:01;9.40;99.90
51579;DHT22;47998;53.242;6.386;2023-02-21T09:05:29;9.50;99.90
51579;DHT22;47998;53.242;6.386;2023-02-21T09:07:57;9.50;99.90
51579;DHT22;47998;53.242;6.386;2023-02-21T09:10:31;9.50;99.90
51579;DHT22;47998;53.242;6.386;2023-02-21T09:13:01;9.50;99.90
51579;DHT22;47998;53.242;6.386;2023-02-21T09:15:27;9.50;99.90
51579;DHT22;47998;53.242;6.386;2023-02-21T09:17:53;9.60;99.90
51579;DHT22;47998;53.242;6.386;2023-02-21T09:20:22;9.70;99.90
51579;DHT22;47998;53.242;6.386;2023-02-21T09:22:48;9.90;99.90
51579;DHT22;47998;53.242;6.386;2023-02-21T09:25:16;10.00;99.90
51579;DHT22;47998;53.242;6.386;2023-02-21T09:27:42;10.00;99.90
51579;DHT22;47998;53.242;6.386;2023-02-21T09:30:14;10.00;99.90
51579;DHT22;47998;53.242;6.386;2023-02-21T09:32:40;10.00;99.90
51579;DHT22;47998;53.242;6.386;2023-02-21T09:35:07;10.00;99.90
51579;DHT22;47998;53.242;6.386;2023-02-21T09:37:37;10.00;99.90
51579;DHT22;47998;53.242;6.386;2023-02-21T09:40:04;10.00;99.90
51579;DHT22;47998;53.242;6.386;2023-02-21T09:42:31;10.00;99.90
51579;DHT22;47998;53.242;6.386;2023-02-21T09:44:58;10.10;99.90
51579;DHT22;47998;53.242;6.386;2023-02-21T09:47:30;10.10;99.90
51579;DHT22;47998;53.242;6.386;2023-02-21T09:50:02;10.10;99.90
51579;DHT22;47998;53.242;6.386;2023-02-21T09:52:40;10.00;99.90
51579;DHT22;47998;53.242;6.386;2023-02-21T09:55:29;10.10;99.90
51579;DHT22;47998;53.242;6.386;2023-02-21T09:57:58;10.00;99.90
51579;DHT22;47998;53.242;6.386;2023-02-21T10:00:34;10.00;99.90
51579;DHT22;47998;53.242;6.386;2023-02-21T10:06:38;10.00;99.90
51579;DHT22;47998;53.242;6.386;2023-02-21T10:09:20;10.00;99.90
51579;DHT22;47998;53.242;6.386;2023-02-21T10:11:58;9.90;99.90
51579;DHT22;47998;53.242;6.386;2023-02-21T10:15:12;9.90;99.90
51579;DHT22;47998;53.242;6.386;2023-02-21T10:17:35;9.90;99.90
51579;DHT22;47998;53.242;6.386;2023-02-21T10:20:31;10.00;99.90
51579;DHT22;47998;53.242;6.386;2023-02-21T10:22:58;10.00;99.90
51579;DHT22;47998;53.242;6.386;2023-02-21T10:25:28;10.10;99.90
51579;DHT22;47998;53.242;6.386;2023-02-21T10:27:56;10.20;99.90
51579;DHT22;47998;53.242;6.386;2023-02-21T10:30:31;10.20;99.90
51579;DHT22;47998;53.242;6.386;2023-02-21T10:33:02;10.30;99.90
51579;DHT22;47998;53.242;6.386;2023-02-21T10:35:38;10.30;99.90
51579;DHT22;47998;53.242;6.386;2023-02-21T10:38:08;10.40;99.90
51579;DHT22;47998;53.242;6.386;2023-02-21T10:40:53;10.40;99.90
51579;DHT22;47998;53.242;6.386;2023-02-21T10:48:50;10.30;99.90
51579;DHT22;47998;53.242;6.386;2023-02-21T10:51:29;10.20;99.90
51579;DHT22;47998;53.242;6.386;2023-02-21T10:54:22;10.20;99.90
51579;DHT22;47998;53.242;6.386;2023-02-21T10:56:49;10.20;99.90
51579;DHT22;47998;53.242;6.386;2023-02-21T10:59:43;10.20;99.90
51579;DHT22;47998;53.242;6.386;2023-02-21T11:02:28;10.20;99.90
51579;DHT22;47998;53.242;6.386;2023-02-21T11:04:56;10.20;99.90
51579;DHT22;47998;53.242;6.386;2023-02-21T11:07:32;10.30;99.90
51579;DHT22;47998;53.242;6.386;2023-02-21T11:09:58;10.40;99.90
51579;DHT22;47998;53.242;6.386;2023-02-21T11:12:26;10.40;99.90
51579;DHT22;47998;53.242;6.386;2023-02-21T11:17:27;10.50;99.90
51579;DHT22;47998;53.242;6.386;2023-02-21T11:20:16;10.50;99.90
51579;DHT22;47998;53.242;6.386;2023-02-21T11:22:43;10.50;99.90
51579;DHT22;47998;53.242;6.386;2023-02-21T11:25:29;10.60;99.90
51579;DHT22;47998;53.242;6.386;2023-02-21T11:33:25;10.50;99.90
51579;DHT22;47998;53.242;6.386;2023-02-21T11:35:53;10.60;99.90
51579;DHT22;47998;53.242;6.386;2023-02-21T11:38:32;10.60;99.90
51579;DHT22;47998;53.242;6.386;2023-02-21T11:41:01;10.70;99.90
51579;DHT22;47998;53.242;6.386;2023-02-21T11:43:31;10.60;99.90
51579;DHT22;47998;53.242;6.386;2023-02-21T11:46:12;10.60;99.90
51579;DHT22;47998;53.242;6.386;2023-02-21T11:48:53;10.60;99.90
51579;DHT22;47998;53.242;6.386;2023-02-21T11:54:28;10.50;99.90
51579;DHT22;47998;53.242;6.386;2023-02-21T11:57:01;10.50;99.90
51579;DHT22;47998;53.242;6.386;2023-02-21T12:05:34;10.60;99.90
51579;DHT22;47998;53.242;6.386;2023-02-21T12:08:42;10.60;99.90
51579;DHT22;47998;53.242;6.386;2023-02-21T12:22:01;10.60;99.90
51579;DHT22;47998;53.242;6.386;2023-02-21T12:32:49;10.70;99.90
51579;DHT22;47998;53.242;6.386;2023-02-21T12:38:13;10.80;99.90
51579;DHT22;47998;53.242;6.386;2023-02-21T12:46:35;10.90;99.90
51579;DHT22;47998;53.242;6.386;2023-02-21T12:49:26;10.90;99.90
51579;DHT22;47998;53.242;6.386;2023-02-21T12:52:14;10.90;99.90
51579;DHT22;47998;53.242;6.386;2023-02-21T13:00:22;10.90;99.90
51579;DHT22;47998;53.242;6.386;2023-02-21T13:05:47;11.00;99.90
51579;DHT22;47998;53.242;6.386;2023-02-21T13:08:23;11.00;99.90
51579;DHT22;47998;53.242;6.386;2023-02-21T13:13:32;11.10;99.90
51579;DHT22;47998;53.242;6.386;2023-02-21T13:16:03;11.10;99.90
51579;DHT22;47998;53.242;6.386;2023-02-21T13:18:39;11.10;99.90
51579;DHT22;47998;53.242;6.386;2023-02-21T13:29:34;11.10;99.90
51579;DHT22;47998;53.242;6.386;2023-02-21T13:32:19;11.00;99.90
51579;DHT22;47998;53.242;6.386;2023-02-21T13:34:55;10.90;99.90
51579;DHT22;47998;53.242;6.386;2023-02-21T13:37:26;10.90;99.90
51579;DHT22;47998;53.242;6.386;2023-02-21T13:40:16;10.90;99.90
51579;DHT22;47998;53.242;6.386;2023-02-21T13:42:43;10.90;99.90
51579;DHT22;47998;53.242;6.386;2023-02-21T13:55:34;10.60;99.90
51579;DHT22;47998;53.242;6.386;2023-02-21T14:24:14;10.30;99.90
51579;DHT22;47998;53.242;6.386;2023-02-21T14:37:40;10.20;99.90
51579;DHT22;47998;53.242;6.386;2023-02-21T14:54:08;10.00;99.90
51579;DHT22;47998;53.242;6.386;2023-02-21T15:02:41;9.80;99.90
51579;DHT22;47998;53.242;6.386;2023-02-21T15:05:20;9.80;99.90
51579;DHT22;47998;53.242;6.386;2023-02-21T15:10:23;9.70;99.90
51579;DHT22;47998;53.242;6.386;2023-02-21T15:13:01;9.70;99.90
51579;DHT22;47998;53.242;6.386;2023-02-21T15:15:37;9.70;99.90
51579;DHT22;47998;53.242;6.386;2023-02-21T15:18:26;9.70;99.90
51579;DHT22;47998;53.242;6.386;2023-02-21T15:23:39;9.50;99.90
51579;DHT22;47998;53.242;6.386;2023-02-21T15:26:23;9.50;99.90
51579;DHT22;47998;53.242;6.386;2023-02-21T15:29:08;9.40;99.90
51579;DHT22;47998;53.242;6.386;2023-02-21T15:31:54;9.40;99.90
51579;DHT22;47998;53.242;6.386;2023-02-21T15:34:26;9.30;99.90
51579;DHT22;47998;53.242;6.386;2023-02-21T15:37:00;9.30;99.90
51579;DHT22;47998;53.242;6.386;2023-02-21T15:39:33;9.30;99.90
51579;DHT22;47998;53.242;6.386;2023-02-21T15:42:02;9.30;99.90
51579;DHT22;47998;53.242;6.386;2023-02-21T15:44:51;9.30;99.90
51579;DHT22;47998;53.242;6.386;2023-02-21T15:47:22;9.20;99.90
51579;DHT22;47998;53.242;6.386;2023-02-21T15:50:07;9.20;99.90
51579;DHT22;47998;53.242;6.386;2023-02-21T15:52:38;9.10;99.90
51579;DHT22;47998;53.242;6.386;2023-02-21T15:57:55;9.00;99.90
51579;DHT22;47998;53.242;6.386;2023-02-21T16:00:25;9.00;99.90
51579;DHT22;47998;53.242;6.386;2023-02-21T16:02:51;9.00;99.90
51579;DHT22;47998;53.242;6.386;2023-02-21T16:05:27;9.00;99.90
51579;DHT22;47998;53.242;6.386;2023-02-21T16:07:58;8.90;99.90
51579;DHT22;47998;53.242;6.386;2023-02-21T16:10:24;9.00;99.90
51579;DHT22;47998;53.242;6.386;2023-02-21T16:12:56;9.00;99.90
51579;DHT22;47998;53.242;6.386;2023-02-21T16:15:28;8.90;99.90
51579;DHT22;47998;53.242;6.386;2023-02-21T16:18:09;8.90;99.90
51579;DHT22;47998;53.242;6.386;2023-02-21T16:20:36;8.90;99.90
51579;DHT22;47998;53.242;6.386;2023-02-21T16:23:25;8.90;99.90
51579;DHT22;47998;53.242;6.386;2023-02-21T16:28:42;8.90;99.90
51579;DHT22;47998;53.242;6.386;2023-02-21T16:31:31;8.90;99.90
51579;DHT22;47998;53.242;6.386;2023-02-21T16:33:58;8.80;99.90
51579;DHT22;47998;53.242;6.386;2023-02-21T16:36:32;8.80;99.90
51579;DHT22;47998;53.242;6.386;2023-02-21T16:38:59;8.70;99.90
51579;DHT22;47998;53.242;6.386;2023-02-21T16:41:25;8.70;99.90
51579;DHT22;47998;53.242;6.386;2023-02-21T16:43:51;8.70;99.90
51579;DHT22;47998;53.242;6.386;2023-02-21T16:46:25;8.90;99.90
51579;DHT22;47998;53.242;6.386;2023-02-21T16:48:54;8.90;99.90
51579;DHT22;47998;53.242;6.386;2023-02-21T16:51:20;8.90;99.90
51579;DHT22;47998;53.242;6.386;2023-02-21T16:53:47;8.90;99.90
51579;DHT22;47998;53.242;6.386;2023-02-21T16:56:13;8.80;99.90
51579;DHT22;47998;53.242;6.386;2023-02-21T16:58:43;8.50;99.90
51579;DHT22;47998;53.242;6.386;2023-02-21T17:01:17;8.80;99.90
51579;DHT22;47998;53.242;6.386;2023-02-21T17:03:45;8.60;99.90
51579;DHT22;47998;53.242;6.386;2023-02-21T17:06:21;8.60;99.90
51579;DHT22;47998;53.242;6.386;2023-02-21T17:08:48;8.80;99.90
51579;DHT22;47998;53.242;6.386;2023-02-21T17:11:14;8.50;99.90
51579;DHT22;47998;53.242;6.386;2023-02-21T17:13:40;8.70;99.90
51579;DHT22;47998;53.242;6.386;2023-02-21T17:16:06;8.80;99.90
51579;DHT22;47998;53.242;6.386;2023-02-21T17:18:32;8.70;99.90
51579;DHT22;47998;53.242;6.386;2023-02-21T17:20:58;8.40;99.90
51579;DHT22;47998;53.242;6.386;2023-02-21T17:23:24;8.50;99.90
51579;DHT22;47998;53.242;6.386;2023-02-21T17:25:50;8.70;99.90
51579;DHT22;47998;53.242;6.386;2023-02-21T17:28:16;8.60;99.90
51579;DHT22;47998;53.242;6.386;2023-02-21T17:30:42;8.50;99.90
51579;DHT22;47998;53.242;6.386;2023-02-21T17:33:08;8.60;99.90
51579;DHT22;47998;53.242;6.386;2023-02-21T17:35:36;8.60;99.90
51579;DHT22;47998;53.242;6.386;2023-02-21T17:38:02;8.40;99.90
51579;DHT22;47998;53.242;6.386;2023-02-21T17:40:28;8.50;99.90
51579;DHT22;47998;53.242;6.386;2023-02-21T17:42:55;8.70;99.90
51579;DHT22;47998;53.242;6.386;2023-02-21T17:45:22;8.30;99.90
51579;DHT22;47998;53.242;6.386;2023-02-21T17:47:50;8.30;99.90
51579;DHT22;47998;53.242;6.386;2023-02-21T17:50:17;8.70;99.90
51579;DHT22;47998;53.242;6.386;2023-02-21T17:52:43;8.30;99.90
51579;DHT22;47998;53.242;6.386;2023-02-21T17:55:16;8.30;99.90
51579;DHT22;47998;53.242;6.386;2023-02-21T17:57:42;8.30;99.90
51579;DHT22;47998;53.242;6.386;2023-02-21T18:00:14;8.40;99.90
51579;DHT22;47998;53.242;6.386;2023-02-21T18:02:40;8.30;99.90
51579;DHT22;47998;53.242;6.386;2023-02-21T18:05:06;8.70;99.90
51579;DHT22;47998;53.242;6.386;2023-02-21T18:07:33;8.60;99.90
51579;DHT22;47998;53.242;6.386;2023-02-21T18:10:01;8.70;99.90
51579;DHT22;47998;53.242;6.386;2023-02-21T18:12:29;8.80;99.90
51579;DHT22;47998;53.242;6.386;2023-02-21T18:14:55;8.40;99.90
51579;DHT22;47998;53.242;6.386;2023-02-21T18:17:20;8.60;99.90
51579;DHT22;47998;53.242;6.386;2023-02-21T18:19:46;8.60;99.90
51579;DHT22;47998;53.242;6.386;2023-02-21T18:22:12;8.80;99.90
51579;DHT22;47998;53.242;6.386;2023-02-21T18:24:38;8.30;99.90
51579;DHT22;47998;53.242;6.386;2023-02-21T18:27:06;8.70;99.90
51579;DHT22;47998;53.242;6.386;2023-02-21T18:29:32;8.70;99.90
51579;DHT22;47998;53.242;6.386;2023-02-21T18:31:57;8.70;99.90
51579;DHT22;47998;53.242;6.386;2023-02-21T18:34:23;8.70;99.90
51579;DHT22;47998;53.242;6.386;2023-02-21T18:36:51;8.80;99.90
51579;DHT22;47998;53.242;6.386;2023-02-21T18:39:18;8.70;99.90
51579;DHT22;47998;53.242;6.386;2023-02-21T18:41:44;8.20;99.90
51579;DHT22;47998;53.242;6.386;2023-02-21T18:44:10;8.50;99.90
51579;DHT22;47998;53.242;6.386;2023-02-21T18:46:36;8.50;99.90
51579;DHT22;47998;53.242;6.386;2023-02-21T18:49:04;8.50;99.90
51579;DHT22;47998;53.242;6.386;2023-02-21T18:51:33;8.50;99.90
51579;DHT22;47998;53.242;6.386;2023-02-21T18:54:00;8.40;99.90
51579;DHT22;47998;53.242;6.386;2023-02-21T18:56:26;8.60;99.90
51579;DHT22;47998;53.242;6.386;2023-02-21T18:58:52;8.60;99.90
51579;DHT22;47998;53.242;6.386;2023-02-21T19:01:19;8.10;99.90
51579;DHT22;47998;53.242;6.386;2023-02-21T19:03:48;8.10;99.90
51579;DHT22;47998;53.242;6.386;2023-02-21T19:06:16;8.50;99.90
51579;DHT22;47998;53.242;6.386;2023-02-21T19:08:43;8.50;99.90
51579;DHT22;47998;53.242;6.386;2023-02-21T19:11:10;8.50;99.90
51579;DHT22;47998;53.242;6.386;2023-02-21T19:13:37;8.20;99.90